sensor_id;sensor_type;location;lat;lon;timestamp;pressure;altitude;pressure_sealevel;temperature;humidity
79285;BME280;68734;50.452;11.636;2023-04-03T00:01:43;96399.66;;;-0.96;85.53
79285;BME280;68734;50.452;11.636;2023-04-03T00:04:08;96400.31;;;-0.94;85.75
79285;BME280;68734;50.452;11.636;2023-04-03T00:06:37;96406.63;;;-0.95;86.17
79285;BME280;68734;50.452;11.636;2023-04-03T00:09:02;96389.56;;;-1.01;85.53
79285;BME280;68734;50.452;11.636;2023-04-03T00:11:28;96398.31;;;-1.01;85.72
79285;BME280;68734;50.452;11.636;2023-04-03T00:13:53;96405.31;;;-0.99;85.54
79285;BME280;68734;50.452;11.636;2023-04-03T00:16:22;96409.94;;;-1.02;85.24
79285;BME280;68734;50.452;11.636;2023-04-03T00:18:48;96397.50;;;-1.01;85.59
79285;BME280;68734;50.452;11.636;2023-04-03T00:21:15;96409.13;;;-1.02;85.47
79285;BME280;68734;50.452;11.636;2023-04-03T00:23:43;96402.50;;;-1.06;85.74
79285;BME280;68734;50.452;11.636;2023-04-03T00:26:11;96404.97;;;-1.05;85.33
79285;BME280;68734;50.452;11.636;2023-04-03T00:28:37;96401.34;;;-1.12;84.90
79285;BME280;68734;50.452;11.636;2023-04-03T00:31:02;96414.59;;;-1.12;84.91
79285;BME280;68734;50.452;11.636;2023-04-03T00:33:28;96404.31;;;-1.15;85.47
79285;BME280;68734;50.452;11.636;2023-04-03T00:35:54;96410.78;;;-1.17;84.68
79285;BME280;68734;50.452;11.636;2023-04-03T00:38:19;96414.25;;;-1.25;84.63
79285;BME280;68734;50.452;11.636;2023-04-03T00:40:47;96412.25;;;-1.23;84.68
79285;BME280;68734;50.452;11.636;2023-04-03T00:43:24;96419.25;;;-1.22;85.16
79285;BME280;68734;50.452;11.636;2023-04-03T00:45:52;96412.63;;;-1.26;85.37
79285;BME280;68734;50.452;11.636;2023-04-03T00:48:29;96406.66;;;-1.28;85.09
79285;BME280;68734;50.452;11.636;2023-04-03T00:50:56;96427.50;;;-1.25;85.12
79285;BME280;68734;50.452;11.636;2023-04-03T00:53:32;96415.22;;;-1.34;85.09
79285;BME280;68734;50.452;11.636;2023-04-03T00:55:59;96421.19;;;-1.32;85.01
79285;BME280;68734;50.452;11.636;2023-04-03T00:58:34;96422.53;;;-1.36;84.63
79285;BME280;68734;50.452;11.636;2023-04-03T01:01:08;96416.41;;;-1.37;84.67
79285;BME280;68734;50.452;11.636;2023-04-03T01:03:35;96427.16;;;-1.38;85.13
79285;BME280;68734;50.452;11.636;2023-04-03T01:06:01;96420.88;;;-1.37;85.29
79285;BME280;68734;50.452;11.636;2023-04-03T01:08:26;96428.00;;;-1.38;85.15
79285;BME280;68734;50.452;11.636;2023-04-03T01:10:52;96410.59;;;-1.41;84.41
79285;BME280;68734;50.452;11.636;2023-04-03T01:13:29;96418.22;;;-1.46;85.48
79285;BME280;68734;50.452;11.636;2023-04-03T01:16:01;96422.72;;;-1.46;85.07
79285;BME280;68734;50.452;11.636;2023-04-03T01:18:28;96416.91;;;-1.50;84.82
79285;BME280;68734;50.452;11.636;2023-04-03T01:26:08;96421.34;;;-1.58;85.30
79285;BME280;68734;50.452;11.636;2023-04-03T01:28:35;96427.81;;;-1.53;85.83
79285;BME280;68734;50.452;11.636;2023-04-03T01:33:45;96433.44;;;-1.56;85.85
79285;BME280;68734;50.452;11.636;2023-04-03T01:36:18;96433.44;;;-1.56;85.42
79285;BME280;68734;50.452;11.636;2023-04-03T01:38:46;96435.75;;;-1.61;85.50
79285;BME280;68734;50.452;11.636;2023-04-03T01:41:11;96433.75;;;-1.67;85.96
79285;BME280;68734;50.452;11.636;2023-04-03T01:43:37;96434.25;;;-1.72;85.21
79285;BME280;68734;50.452;11.636;2023-04-03T01:46:02;96433.44;;;-1.72;85.38
79285;BME280;68734;50.452;11.636;2023-04-03T01:48:28;96420.47;;;-1.84;84.66
79285;BME280;68734;50.452;11.636;2023-04-03T01:50:53;96436.03;;;-1.81;85.78
79285;BME280;68734;50.452;11.636;2023-04-03T01:53:19;96432.72;;;-1.83;85.86
79285;BME280;68734;50.452;11.636;2023-04-03T01:55:44;96444.50;;;-1.77;84.75
79285;BME280;68734;50.452;11.636;2023-04-03T01:58:10;96438.00;;;-1.83;84.94
79285;BME280;68734;50.452;11.636;2023-04-03T02:00:36;96418.81;;;-1.85;85.08
79285;BME280;68734;50.452;11.636;2023-04-03T02:03:02;96438.00;;;-1.83;85.59
79285;BME280;68734;50.452;11.636;2023-04-03T02:05:28;96449.59;;;-1.92;85.82
79285;BME280;68734;50.452;11.636;2023-04-03T02:07:56;96437.31;;;-1.93;85.31
79285;BME280;68734;50.452;11.636;2023-04-03T02:10:23;96432.69;;;-1.91;84.99
79285;BME280;68734;50.452;11.636;2023-04-03T02:12:49;96443.63;;;-1.94;84.76
79285;BME280;68734;50.452;11.636;2023-04-03T02:15:15;96444.72;;;-2.05;85.17
79285;BME280;68734;50.452;11.636;2023-04-03T02:17:40;96422.91;;;-1.98;85.33
79285;BME280;68734;50.452;11.636;2023-04-03T02:20:06;96437.97;;;-1.99;85.65
79285;BME280;68734;50.452;11.636;2023-04-03T02:22:35;96445.25;;;-2.01;85.38
79285;BME280;68734;50.452;11.636;2023-04-03T02:25:03;96440.59;;;-2.07;85.59
79285;BME280;68734;50.452;11.636;2023-04-03T02:27:31;96448.19;;;-2.12;84.23
79285;BME280;68734;50.452;11.636;2023-04-03T02:29:59;96449.84;;;-2.11;84.50
79285;BME280;68734;50.452;11.636;2023-04-03T02:32:25;96433.97;;;-2.11;85.18
79285;BME280;68734;50.452;11.636;2023-04-03T02:34:50;96448.00;;;-2.11;85.15
79285;BME280;68734;50.452;11.636;2023-04-03T02:37:16;96465.72;;;-2.11;85.18
79285;BME280;68734;50.452;11.636;2023-04-03T02:39:41;96434.72;;;-2.27;82.57
79285;BME280;68734;50.452;11.636;2023-04-03T02:42:06;96456.03;;;-2.29;83.88
79285;BME280;68734;50.452;11.636;2023-04-03T02:44:32;96448.72;;;-2.35;82.56
79285;BME280;68734;50.452;11.636;2023-04-03T02:47:00;96437.13;;;-2.42;82.81
79285;BME280;68734;50.452;11.636;2023-04-03T02:49:26;96456.19;;;-2.38;82.91
79285;BME280;68734;50.452;11.636;2023-04-03T02:51:53;96464.94;;;-2.38;83.34
79285;BME280;68734;50.452;11.636;2023-04-03T02:54:19;96448.84;;;-2.45;82.95
79285;BME280;68734;50.452;11.636;2023-04-03T02:56:48;96457.47;;;-2.43;82.50
79285;BME280;68734;50.452;11.636;2023-04-03T02:59:14;96443.69;;;-2.54;82.46
79285;BME280;68734;50.452;11.636;2023-04-03T03:01:39;96467.53;;;-2.46;81.88
79285;BME280;68734;50.452;11.636;2023-04-03T03:04:07;96453.94;;;-2.51;81.62
79285;BME280;68734;50.452;11.636;2023-04-03T03:06:33;96453.22;;;-2.62;81.21
79285;BME280;68734;50.452;11.636;2023-04-03T03:08:58;96461.00;;;-2.60;81.64
79285;BME280;68734;50.452;11.636;2023-04-03T03:11:24;96456.25;;;-2.56;81.18
79285;BME280;68734;50.452;11.636;2023-04-03T03:13:50;96452.41;;;-2.62;81.89
79285;BME280;68734;50.452;11.636;2023-04-03T03:16:18;96463.50;;;-2.58;81.89
79285;BME280;68734;50.452;11.636;2023-04-03T03:18:46;96467.94;;;-2.59;82.53
79285;BME280;68734;50.452;11.636;2023-04-03T03:21:14;96465.16;;;-2.57;82.81
79285;BME280;68734;50.452;11.636;2023-04-03T03:23:40;96452.84;;;-2.67;82.83
79285;BME280;68734;50.452;11.636;2023-04-03T03:26:09;96459.16;;;-2.68;82.46
79285;BME280;68734;50.452;11.636;2023-04-03T03:28:36;96464.44;;;-2.68;82.91
79285;BME280;68734;50.452;11.636;2023-04-03T03:31:02;96461.75;;;-2.76;82.14
79285;BME280;68734;50.452;11.636;2023-04-03T03:33:30;96467.03;;;-2.76;82.98
79285;BME280;68734;50.452;11.636;2023-04-03T03:35:56;96469.66;;;-2.76;83.59
79285;BME280;68734;50.452;11.636;2023-04-03T03:38:24;96468.00;;;-2.77;83.29
79285;BME280;68734;50.452;11.636;2023-04-03T03:40:51;96471.13;;;-2.82;83.49
79285;BME280;68734;50.452;11.636;2023-04-03T03:43:16;96452.91;;;-2.85;84.10
79285;BME280;68734;50.452;11.636;2023-04-03T03:45:42;96466.59;;;-2.89;84.18
79285;BME280;68734;50.452;11.636;2023-04-03T03:48:08;96471.22;;;-2.91;84.27
79285;BME280;68734;50.452;11.636;2023-04-03T03:50:33;96475.19;;;-2.87;84.55
79285;BME280;68734;50.452;11.636;2023-04-03T03:52:58;96466.06;;;-2.93;84.36
79285;BME280;68734;50.452;11.636;2023-04-03T03:55:26;96473.84;;;-2.91;84.23
79285;BME280;68734;50.452;11.636;2023-04-03T03:57:54;96474.47;;;-2.97;83.89
79285;BME280;68734;50.452;11.636;2023-04-03T04:00:20;96483.69;;;-3.02;84.09
79285;BME280;68734;50.452;11.636;2023-04-03T04:02:46;96485.19;;;-2.99;84.79
79285;BME280;68734;50.452;11.636;2023-04-03T04:05:11;96467.81;;;-3.02;84.24
79285;BME280;68734;50.452;11.636;2023-04-03T04:07:42;96487.34;;;-3.03;84.39
79285;BME280;68734;50.452;11.636;2023-04-03T04:10:10;96479.53;;;-3.04;84.04
79285;BME280;68734;50.452;11.636;2023-04-03T04:12:35;96471.69;;;-3.14;84.33
79285;BME280;68734;50.452;11.636;2023-04-03T04:15:01;96488.59;;;-3.07;84.35
79285;BME280;68734;50.452;11.636;2023-04-03T04:17:27;96473.06;;;-3.10;84.60
79285;BME280;68734;50.452;11.636;2023-04-03T04:19:53;96483.25;;;-3.15;83.86
79285;BME280;68734;50.452;11.636;2023-04-03T04:22:18;96479.63;;;-3.14;84.50
79285;BME280;68734;50.452;11.636;2023-04-03T04:24:43;96490.88;;;-3.12;84.71
79285;BME280;68734;50.452;11.636;2023-04-03T04:27:09;96483.25;;;-3.15;85.53
79285;BME280;68734;50.452;11.636;2023-04-03T04:29:34;96483.41;;;-3.16;85.18
79285;BME280;68734;50.452;11.636;2023-04-03T04:32:03;96495.47;;;-3.14;85.72
79285;BME280;68734;50.452;11.636;2023-04-03T04:34:28;96499.41;;;-3.18;85.40
79285;BME280;68734;50.452;11.636;2023-04-03T04:36:57;96494.94;;;-3.17;84.50
79285;BME280;68734;50.452;11.636;2023-04-03T04:39:23;96491.09;;;-3.23;85.36
79285;BME280;68734;50.452;11.636;2023-04-03T04:41:48;96494.75;;;-3.24;85.10
79285;BME280;68734;50.452;11.636;2023-04-03T04:44:14;96493.06;;;-3.25;85.41
79285;BME280;68734;50.452;11.636;2023-04-03T04:46:39;96495.78;;;-3.17;85.23
79285;BME280;68734;50.452;11.636;2023-04-03T04:49:05;96496.09;;;-3.20;85.50
79285;BME280;68734;50.452;11.636;2023-04-03T04:51:33;96499.41;;;-3.18;85.87
79285;BME280;68734;50.452;11.636;2023-04-03T04:54:04;96512.56;;;-3.26;85.00
79285;BME280;68734;50.452;11.636;2023-04-03T04:56:29;96501.75;;;-3.33;85.39
79285;BME280;68734;50.452;11.636;2023-04-03T04:58:55;96519.88;;;-3.38;85.96
79285;BME280;68734;50.452;11.636;2023-04-03T05:01:20;96502.13;;;-3.46;85.54
79285;BME280;68734;50.452;11.636;2023-04-03T05:03:46;96508.09;;;-3.44;86.42
79285;BME280;68734;50.452;11.636;2023-04-03T05:06:12;96509.16;;;-3.36;85.89
79285;BME280;68734;50.452;11.636;2023-04-03T05:08:38;96507.88;;;-3.32;86.14
79285;BME280;68734;50.452;11.636;2023-04-03T05:11:03;96518.72;;;-3.35;85.88
79285;BME280;68734;50.452;11.636;2023-04-03T05:13:29;96514.88;;;-3.41;85.90
79285;BME280;68734;50.452;11.636;2023-04-03T05:15:54;96510.59;;;-3.42;86.02
79285;BME280;68734;50.452;11.636;2023-04-03T05:18:22;96515.34;;;-3.46;85.88
79285;BME280;68734;50.452;11.636;2023-04-03T05:20:50;96516.59;;;-3.50;86.33
79285;BME280;68734;50.452;11.636;2023-04-03T05:23:16;96519.75;;;-3.64;85.83
79285;BME280;68734;50.452;11.636;2023-04-03T05:25:42;96525.00;;;-3.54;86.06
79285;BME280;68734;50.452;11.636;2023-04-03T05:28:09;96512.38;;;-3.61;86.76
79285;BME280;68734;50.452;11.636;2023-04-03T05:30:35;96516.13;;;-3.63;85.97
79285;BME280;68734;50.452;11.636;2023-04-03T05:33:01;96522.31;;;-3.72;85.95
79285;BME280;68734;50.452;11.636;2023-04-03T05:35:27;96519.69;;;-3.72;86.25
79285;BME280;68734;50.452;11.636;2023-04-03T05:37:52;96535.50;;;-3.72;86.70
79285;BME280;68734;50.452;11.636;2023-04-03T05:40:20;96524.28;;;-3.74;86.22
79285;BME280;68734;50.452;11.636;2023-04-03T05:42:46;96526.75;;;-3.73;86.72
79285;BME280;68734;50.452;11.636;2023-04-03T05:45:14;96513.50;;;-3.63;86.02
79285;BME280;68734;50.452;11.636;2023-04-03T05:47:39;96531.50;;;-3.76;86.22
79285;BME280;68734;50.452;11.636;2023-04-03T05:50:05;96536.78;;;-3.76;86.16
79285;BME280;68734;50.452;11.636;2023-04-03T05:52:37;96551.50;;;-3.74;86.45
79285;BME280;68734;50.452;11.636;2023-04-03T05:55:03;96550.97;;;-3.77;86.14
79285;BME280;68734;50.452;11.636;2023-04-03T05:57:29;96567.38;;;-3.84;86.20
79285;BME280;68734;50.452;11.636;2023-04-03T05:59:57;96547.94;;;-3.83;86.11
79285;BME280;68734;50.452;11.636;2023-04-03T06:02:23;96552.22;;;-3.82;85.76
79285;BME280;68734;50.452;11.636;2023-04-03T06:04:50;96556.13;;;-3.86;85.69
79285;BME280;68734;50.452;11.636;2023-04-03T06:07:21;96551.25;;;-3.81;85.90
79285;BME280;68734;50.452;11.636;2023-04-03T06:09:48;96551.25;;;-3.81;85.55
79285;BME280;68734;50.452;11.636;2023-04-03T06:12:14;96546.03;;;-3.90;85.86
79285;BME280;68734;50.452;11.636;2023-04-03T06:14:40;96551.84;;;-3.87;85.67
79285;BME280;68734;50.452;11.636;2023-04-03T06:17:06;96559.66;;;-3.95;85.96
79285;BME280;68734;50.452;11.636;2023-04-03T06:19:32;96555.75;;;-3.91;86.10
79285;BME280;68734;50.452;11.636;2023-04-03T06:21:57;96544.31;;;-3.82;85.77
79285;BME280;68734;50.452;11.636;2023-04-03T06:24:26;96560.47;;;-3.85;85.94
79285;BME280;68734;50.452;11.636;2023-04-03T06:26:52;96553.59;;;-3.77;85.50
79285;BME280;68734;50.452;11.636;2023-04-03T06:29:18;96560.47;;;-3.85;85.88
79285;BME280;68734;50.452;11.636;2023-04-03T06:31:45;96555.28;;;-3.76;85.32
79285;BME280;68734;50.452;11.636;2023-04-03T06:34:11;96560.66;;;-3.68;84.22
79285;BME280;68734;50.452;11.636;2023-04-03T06:36:37;96555.66;;;-3.71;84.44
79285;BME280;68734;50.452;11.636;2023-04-03T06:39:03;96570.72;;;-3.54;84.26
79285;BME280;68734;50.452;11.636;2023-04-03T06:41:29;96570.41;;;-3.51;83.49
79285;BME280;68734;50.452;11.636;2023-04-03T06:43:55;96569.16;;;-3.47;84.07
79285;BME280;68734;50.452;11.636;2023-04-03T06:46:25;96566.88;;;-3.42;81.95
79285;BME280;68734;50.452;11.636;2023-04-03T06:48:51;96566.59;;;-3.38;81.75
79285;BME280;68734;50.452;11.636;2023-04-03T06:51:20;96572.03;;;-3.22;82.58
79285;BME280;68734;50.452;11.636;2023-04-03T06:53:47;96567.38;;;-3.28;81.37
79285;BME280;68734;50.452;11.636;2023-04-03T06:56:15;96583.66;;;-3.15;81.44
79285;BME280;68734;50.452;11.636;2023-04-03T06:58:41;96593.47;;;-3.25;80.40
79285;BME280;68734;50.452;11.636;2023-04-03T07:01:08;96569.47;;;-3.32;80.21
79285;BME280;68734;50.452;11.636;2023-04-03T07:03:35;96604.34;;;-3.28;79.44
79285;BME280;68734;50.452;11.636;2023-04-03T07:06:02;96596.72;;;-3.31;79.16
79285;BME280;68734;50.452;11.636;2023-04-03T07:08:31;96605.41;;;-3.21;79.86
79285;BME280;68734;50.452;11.636;2023-04-03T07:10:57;96599.13;;;-3.38;78.77
79285;BME280;68734;50.452;11.636;2023-04-03T07:13:22;96607.44;;;-3.15;78.71
79285;BME280;68734;50.452;11.636;2023-04-03T07:15:48;96619.03;;;-3.16;78.95
79285;BME280;68734;50.452;11.636;2023-04-03T07:18:15;96605.78;;;-3.34;79.07
79285;BME280;68734;50.452;11.636;2023-04-03T07:20:42;96596.66;;;-3.22;79.13
79285;BME280;68734;50.452;11.636;2023-04-03T07:23:07;96622.47;;;-3.15;78.38
79285;BME280;68734;50.452;11.636;2023-04-03T07:25:33;96607.97;;;-3.29;76.88
79285;BME280;68734;50.452;11.636;2023-04-03T07:27:58;96630.47;;;-3.25;77.61
79285;BME280;68734;50.452;11.636;2023-04-03T07:30:24;96623.19;;;-2.95;76.61
79285;BME280;68734;50.452;11.636;2023-04-03T07:32:50;96625.75;;;-3.04;77.78
79285;BME280;68734;50.452;11.636;2023-04-03T07:35:19;96632.63;;;-2.75;77.73
79285;BME280;68734;50.452;11.636;2023-04-03T07:37:45;96638.22;;;-2.96;77.57
79285;BME280;68734;50.452;11.636;2023-04-03T07:40:11;96635.06;;;-2.64;77.99
79285;BME280;68734;50.452;11.636;2023-04-03T07:42:36;96620.88;;;-2.63;75.44
79285;BME280;68734;50.452;11.636;2023-04-03T07:45:05;96641.94;;;-2.53;77.45
79285;BME280;68734;50.452;11.636;2023-04-03T07:47:31;96636.28;;;-2.76;77.61
79285;BME280;68734;50.452;11.636;2023-04-03T07:49:58;96630.16;;;-2.58;77.05
79285;BME280;68734;50.452;11.636;2023-04-03T07:52:24;96638.38;;;-2.62;77.28
79285;BME280;68734;50.452;11.636;2023-04-03T07:54:50;96638.16;;;-2.86;77.84
79285;BME280;68734;50.452;11.636;2023-04-03T07:57:16;96633.25;;;-2.81;77.51
79285;BME280;68734;50.452;11.636;2023-04-03T07:59:41;96639.00;;;-2.68;77.50
79285;BME280;68734;50.452;11.636;2023-04-03T08:02:11;96643.19;;;-2.39;75.97
79285;BME280;68734;50.452;11.636;2023-04-03T08:04:37;96633.97;;;-2.35;73.60
79285;BME280;68734;50.452;11.636;2023-04-03T08:07:02;96649.94;;;-2.01;73.96
79285;BME280;68734;50.452;11.636;2023-04-03T08:09:30;96644.25;;;-1.88;72.77
79285;BME280;68734;50.452;11.636;2023-04-03T08:11:59;96645.94;;;-2.05;74.52
79285;BME280;68734;50.452;11.636;2023-04-03T08:14:24;96667.53;;;-2.17;75.18
79285;BME280;68734;50.452;11.636;2023-04-03T08:16:50;96660.16;;;-2.32;75.41
79285;BME280;68734;50.452;11.636;2023-04-03T08:19:16;96649.19;;;-2.73;76.94
79285;BME280;68734;50.452;11.636;2023-04-03T08:21:44;96659.41;;;-2.78;75.93
79285;BME280;68734;50.452;11.636;2023-04-03T08:24:10;96665.13;;;-2.65;76.23
79285;BME280;68734;50.452;11.636;2023-04-03T08:26:36;96674.25;;;-2.95;74.30
79285;BME280;68734;50.452;11.636;2023-04-03T08:29:02;96669.16;;;-2.78;74.62
79285;BME280;68734;50.452;11.636;2023-04-03T08:31:28;96683.88;;;-2.76;74.65
79285;BME280;68734;50.452;11.636;2023-04-03T08:33:53;96674.50;;;-2.88;74.93
79285;BME280;68734;50.452;11.636;2023-04-03T08:36:24;96679.63;;;-2.87;74.96
79285;BME280;68734;50.452;11.636;2023-04-03T08:38:52;96687.31;;;-2.93;75.13
79285;BME280;68734;50.452;11.636;2023-04-03T08:41:38;96697.72;;;-3.10;76.21
79285;BME280;68734;50.452;11.636;2023-04-03T08:49:43;96690.97;;;-2.94;76.48
79285;BME280;68734;50.452;11.636;2023-04-03T08:52:20;96696.94;;;-3.20;75.06
79285;BME280;68734;50.452;11.636;2023-04-03T08:54:50;96699.69;;;-3.12;74.65
79285;BME280;68734;50.452;11.636;2023-04-03T08:57:18;96693.69;;;-3.14;73.32
79285;BME280;68734;50.452;11.636;2023-04-03T08:59:45;96696.72;;;-3.09;74.45
79285;BME280;68734;50.452;11.636;2023-04-03T09:02:27;96664.03;;;-3.08;72.26
79285;BME280;68734;50.452;11.636;2023-04-03T09:04:58;96708.88;;;-3.16;73.15
79285;BME280;68734;50.452;11.636;2023-04-03T09:07:33;96702.47;;;-3.13;70.30
79285;BME280;68734;50.452;11.636;2023-04-03T09:10:00;96708.63;;;-3.23;73.35
79285;BME280;68734;50.452;11.636;2023-04-03T09:12:34;96681.09;;;-3.20;72.88
79285;BME280;68734;50.452;11.636;2023-04-03T09:18:05;96708.09;;;-3.26;71.96
79285;BME280;68734;50.452;11.636;2023-04-03T09:20:59;96720.03;;;-3.22;71.78
79285;BME280;68734;50.452;11.636;2023-04-03T09:23:46;96704.97;;;-3.12;72.29
79285;BME280;68734;50.452;11.636;2023-04-03T09:26:23;96703.50;;;-2.96;71.39
79285;BME280;68734;50.452;11.636;2023-04-03T09:28:52;96686.44;;;-2.84;69.65
79285;BME280;68734;50.452;11.636;2023-04-03T09:31:24;96688.16;;;-2.93;67.64
79285;BME280;68734;50.452;11.636;2023-04-03T09:34:04;96691.56;;;-3.01;67.23
79285;BME280;68734;50.452;11.636;2023-04-03T09:36:51;96700.72;;;-2.59;66.39
79285;BME280;68734;50.452;11.636;2023-04-03T09:39:20;96690.84;;;-2.39;62.97
79285;BME280;68734;50.452;11.636;2023-04-03T09:42:02;96697.66;;;-2.18;63.08
79285;BME280;68734;50.452;11.636;2023-04-03T09:44:30;96681.16;;;-2.12;61.42
79285;BME280;68734;50.452;11.636;2023-04-03T09:46:55;96690.50;;;-2.00;63.02
79285;BME280;68734;50.452;11.636;2023-04-03T09:49:21;96673.44;;;-2.24;60.97
79285;BME280;68734;50.452;11.636;2023-04-03T09:51:47;96684.22;;;-1.99;58.77
79285;BME280;68734;50.452;11.636;2023-04-03T09:54:33;96678.28;;;-1.93;58.88
79285;BME280;68734;50.452;11.636;2023-04-03T09:57:15;96689.38;;;-1.71;61.36
79285;BME280;68734;50.452;11.636;2023-04-03T09:59:58;96685.00;;;-1.81;58.96
79285;BME280;68734;50.452;11.636;2023-04-03T10:02:34;96659.94;;;-1.34;58.61
79285;BME280;68734;50.452;11.636;2023-04-03T10:05:01;96660.88;;;-1.43;56.16
79285;BME280;68734;50.452;11.636;2023-04-03T10:07:33;96672.28;;;-1.43;58.85
79285;BME280;68734;50.452;11.636;2023-04-03T10:12:40;96689.03;;;-1.08;56.88
79285;BME280;68734;50.452;11.636;2023-04-03T10:15:16;96681.72;;;-1.14;54.43
79285;BME280;68734;50.452;11.636;2023-04-03T10:17:57;96656.97;;;-0.80;55.73
79285;BME280;68734;50.452;11.636;2023-04-03T10:25:40;96666.66;;;-0.22;55.37
79285;BME280;68734;50.452;11.636;2023-04-03T10:31:07;96661.81;;;-0.34;51.17
79285;BME280;68734;50.452;11.636;2023-04-03T10:36:27;96648.38;;;-0.49;53.21
79285;BME280;68734;50.452;11.636;2023-04-03T10:47:40;96641.63;;;-1.03;56.05
79285;BME280;68734;50.452;11.636;2023-04-03T10:50:22;96657.94;;;-1.32;56.65
79285;BME280;68734;50.452;11.636;2023-04-03T10:57:54;96645.63;;;-0.90;54.36
79285;BME280;68734;50.452;11.636;2023-04-03T11:00:34;96633.56;;;-0.76;54.69
79285;BME280;68734;50.452;11.636;2023-04-03T11:03:15;96632.09;;;-0.63;54.32
79285;BME280;68734;50.452;11.636;2023-04-03T11:10:55;96641.06;;;-0.72;53.23
79285;BME280;68734;50.452;11.636;2023-04-03T11:13:43;96641.53;;;-0.76;52.02
79285;BME280;68734;50.452;11.636;2023-04-03T11:16:18;96641.75;;;-0.53;50.52
79285;BME280;68734;50.452;11.636;2023-04-03T11:18:50;96619.34;;;-0.51;53.60
79285;BME280;68734;50.452;11.636;2023-04-03T11:24:26;96626.84;;;-0.30;50.19
79285;BME280;68734;50.452;11.636;2023-04-03T11:26:54;96630.16;;;-0.28;51.08
79285;BME280;68734;50.452;11.636;2023-04-03T11:29:31;96606.25;;;-0.28;51.25
79285;BME280;68734;50.452;11.636;2023-04-03T11:34:40;96616.88;;;-0.19;50.79
79285;BME280;68734;50.452;11.636;2023-04-03T11:37:48;96612.72;;;-0.30;50.68
79285;BME280;68734;50.452;11.636;2023-04-03T11:42:43;96617.16;;;0.18;51.59
79285;BME280;68734;50.452;11.636;2023-04-03T11:47:54;96589.69;;;0.43;50.72
79285;BME280;68734;50.452;11.636;2023-04-03T11:53:29;96596.25;;;0.07;50.29
79285;BME280;68734;50.452;11.636;2023-04-03T11:56:01;96621.00;;;-0.09;50.34
79285;BME280;68734;50.452;11.636;2023-04-03T11:58:30;96592.59;;;-0.08;52.10
79285;BME280;68734;50.452;11.636;2023-04-03T12:01:06;96590.56;;;0.27;49.57
79285;BME280;68734;50.452;11.636;2023-04-03T12:48:47;96570.06;;;-0.29;50.56
79285;BME280;68734;50.452;11.636;2023-04-03T12:51:21;96567.06;;;-0.17;50.59
79285;BME280;68734;50.452;11.636;2023-04-03T12:53:49;96595.22;;;0.16;49.35
79285;BME280;68734;50.452;11.636;2023-04-03T12:56:28;96564.59;;;0.37;49.54
79285;BME280;68734;50.452;11.636;2023-04-03T12:59:13;96565.03;;;0.57;48.46
79285;BME280;68734;50.452;11.636;2023-04-03T13:01:39;96565.84;;;0.57;48.21
79285;BME280;68734;50.452;11.636;2023-04-03T13:04:06;96567.19;;;0.53;51.21
79285;BME280;68734;50.452;11.636;2023-04-03T13:06:39;96574.09;;;0.71;49.29
79285;BME280;68734;50.452;11.636;2023-04-03T13:09:06;96553.81;;;0.70;48.70
79285;BME280;68734;50.452;11.636;2023-04-03T13:11:38;96550.53;;;0.59;49.40
79285;BME280;68734;50.452;11.636;2023-04-03T13:14:16;96563.06;;;0.82;51.20
79285;BME280;68734;50.452;11.636;2023-04-03T13:16:52;96589.81;;;0.49;49.69
79285;BME280;68734;50.452;11.636;2023-04-03T13:19:18;96564.13;;;0.33;50.62
79285;BME280;68734;50.452;11.636;2023-04-03T13:21:44;96551.41;;;0.12;48.64
79285;BME280;68734;50.452;11.636;2023-04-03T13:24:10;96567.56;;;0.50;49.28
79285;BME280;68734;50.452;11.636;2023-04-03T13:26:37;96559.13;;;0.70;48.58
79285;BME280;68734;50.452;11.636;2023-04-03T13:29:06;96558.09;;;0.39;50.00
79285;BME280;68734;50.452;11.636;2023-04-03T13:31:34;96568.50;;;0.10;51.14
79285;BME280;68734;50.452;11.636;2023-04-03T13:34:09;96533.28;;;0.24;50.19
79285;BME280;68734;50.452;11.636;2023-04-03T13:37:00;96554.72;;;0.54;50.14
79285;BME280;68734;50.452;11.636;2023-04-03T13:39:38;96549.75;;;0.90;49.60
79285;BME280;68734;50.452;11.636;2023-04-03T13:44:46;96533.53;;;1.00;50.70
79285;BME280;68734;50.452;11.636;2023-04-03T13:47:21;96556.63;;;0.37;50.62
79285;BME280;68734;50.452;11.636;2023-04-03T13:52:53;96521.34;;;0.12;49.39
79285;BME280;68734;50.452;11.636;2023-04-03T13:55:26;96537.00;;;0.46;49.57
79285;BME280;68734;50.452;11.636;2023-04-03T13:58:20;96540.41;;;0.94;48.04
79285;BME280;68734;50.452;11.636;2023-04-03T14:03:46;96504.31;;;0.92;50.22
79285;BME280;68734;50.452;11.636;2023-04-03T14:06:15;96531.31;;;0.49;49.91
79285;BME280;68734;50.452;11.636;2023-04-03T14:08:42;96548.09;;;0.50;49.01
79285;BME280;68734;50.452;11.636;2023-04-03T14:11:29;96537.94;;;0.53;49.51
79285;BME280;68734;50.452;11.636;2023-04-03T14:13:58;96546.59;;;0.55;50.41
79285;BME280;68734;50.452;11.636;2023-04-03T14:16:29;96532.44;;;0.86;49.36
79285;BME280;68734;50.452;11.636;2023-04-03T14:19:03;96540.31;;;0.48;48.98
79285;BME280;68734;50.452;11.636;2023-04-03T14:21:29;96541.44;;;0.85;47.50
79285;BME280;68734;50.452;11.636;2023-04-03T14:23:54;96530.09;;;0.68;48.18
79285;BME280;68734;50.452;11.636;2023-04-03T14:26:23;96525.50;;;0.14;47.37
79285;BME280;68734;50.452;11.636;2023-04-03T14:28:51;96545.38;;;0.27;47.98
79285;BME280;68734;50.452;11.636;2023-04-03T14:31:18;96534.59;;;0.59;48.73
79285;BME280;68734;50.452;11.636;2023-04-03T14:33:44;96538.03;;;1.23;48.02
79285;BME280;68734;50.452;11.636;2023-04-03T14:36:17;96544.78;;;1.10;48.14
79285;BME280;68734;50.452;11.636;2023-04-03T14:38:44;96532.31;;;0.56;49.45
79285;BME280;68734;50.452;11.636;2023-04-03T14:41:15;96535.41;;;0.29;50.36
79285;BME280;68734;50.452;11.636;2023-04-03T14:43:41;96545.41;;;0.18;49.84
79285;BME280;68734;50.452;11.636;2023-04-03T14:46:19;96550.06;;;0.16;50.12
79285;BME280;68734;50.452;11.636;2023-04-03T14:48:46;96524.41;;;0.32;48.88
79285;BME280;68734;50.452;11.636;2023-04-03T14:51:13;96542.97;;;0.48;47.73
79285;BME280;68734;50.452;11.636;2023-04-03T14:53:40;96531.78;;;0.92;46.95
79285;BME280;68734;50.452;11.636;2023-04-03T14:56:14;96534.88;;;0.73;46.22
79285;BME280;68734;50.452;11.636;2023-04-03T14:58:41;96533.13;;;0.57;47.61